Other Surface Observations
Issued by NWS Missoula, MT

Current Version | Previous Version | Text Only | Print | Product List | Glossary On
Versions: 1 2 3 4 5 6 7 8 9 10 11 12 13 14 15 16 17 18 19 20 21 22 23 24 25 26 27 28 29 30 31 32 33 34 35 36 37 38 39 40 41 42 43 44 45 46 47 48 49 50
000
SXUS55 KMSO 270703
OSOMSO
MONTANA AWOS SUMMARY
NATIONAL WEATHER SERVICE MISSOULA MT
1203 AM MST FRI MAR 27 2015

Montana AWOS Reports

PLAINS      |KS34 270655Z AUTO 25SM 04/02 A3022 RMK AO1 T00440022
LAUREL      |K6S8 270655Z AUTO 27005KT 40SM 11/01 A3009 RMK AO1 T01110006
TWIN BRIDGES|K7S1 270655Z AUTO 00000KT 40SM 08/01 A3023 RMK AO1 T00780006
ROUNDUP     |KRPX 270655Z AUTO 23005KT 40SM 11/01 A3000 RMK AO1 T01060011
MALTA       |KM75 270655Z AUTO 00000KT 40SM 04/M01 A2996 RMK AO1 T00441005
SCOBEY      |K9S2 270655Z AUTO 14004KT 25SM 02/M03 A2998 RMK AO1 T00171027




USA.gov is the U.S. government's official web portal to all federal, state and local government web resources and services.